createdAt,value
2019-04-25T00:01:15.772Z,0.90
2019-04-25T00:03:53.362Z,0.80
2019-04-25T00:06:30.121Z,0.80
2019-04-25T00:09:11.921Z,1.00
2019-04-25T00:11:48.982Z,1.00
2019-04-25T00:14:25.647Z,0.87
2019-04-25T00:17:02.112Z,1.23
2019-04-25T00:19:38.743Z,0.90
2019-04-25T00:22:16.717Z,1.17
2019-04-25T00:24:57.801Z,0.70
2019-04-25T00:27:34.030Z,1.20
2019-04-25T00:30:11.311Z,1.20
2019-04-25T00:32:47.554Z,0.70
2019-04-25T00:35:23.844Z,0.80
2019-04-25T00:38:00.021Z,0.80
2019-04-25T00:40:36.311Z,0.83
2019-04-25T00:43:12.556Z,1.20
2019-04-25T00:45:49.527Z,0.93
2019-04-25T00:48:25.820Z,1.00
2019-04-25T00:51:02.029Z,0.93
2019-04-25T00:53:38.271Z,1.20
2019-04-25T00:56:14.471Z,1.07
2019-04-25T00:58:58.159Z,0.87
2019-04-25T01:01:36.014Z,1.20
2019-04-25T01:04:12.337Z,0.80
2019-04-25T01:06:48.559Z,0.83
2019-04-25T01:09:25.666Z,0.90
2019-04-25T01:12:04.067Z,0.90
2019-04-25T01:14:41.880Z,0.90
2019-04-25T01:17:18.324Z,1.00
2019-04-25T01:19:56.933Z,1.10
2019-04-25T01:22:32.363Z,0.97
2019-04-25T01:25:10.573Z,0.97
2019-04-25T01:27:47.662Z,1.13
2019-04-25T01:30:25.493Z,0.90
2019-04-25T01:33:03.438Z,1.00
2019-04-25T01:35:43.024Z,1.10
2019-04-25T01:38:24.157Z,1.00
2019-04-25T01:41:03.333Z,0.90
2019-04-25T01:43:43.516Z,1.00
2019-04-25T01:46:19.951Z,1.00
2019-04-25T01:48:56.515Z,1.20
2019-04-25T01:51:33.946Z,1.00
2019-04-25T01:54:10.189Z,0.90
2019-04-25T01:56:46.401Z,0.87
2019-04-25T01:59:23.742Z,1.00
2019-04-25T02:02:00.007Z,1.00
2019-04-25T02:04:36.376Z,1.00
2019-04-25T02:07:13.464Z,1.30
2019-04-25T02:09:49.775Z,1.27
2019-04-25T02:12:27.477Z,1.00
2019-04-25T02:15:06.221Z,1.33
2019-04-25T02:17:43.886Z,1.30
2019-04-25T02:20:20.267Z,1.30
2019-04-25T02:22:56.511Z,1.30
2019-04-25T02:25:33.243Z,1.20
2019-04-25T02:28:09.591Z,1.10
2019-04-25T02:30:45.752Z,1.33
2019-04-25T02:33:24.010Z,1.40
2019-04-25T02:36:02.602Z,1.50
2019-04-25T02:38:37.612Z,1.43
2019-04-25T02:41:14.831Z,1.40
2019-04-25T02:43:51.280Z,1.40
2019-04-25T02:46:41.577Z,1.77
2019-04-25T02:49:32.853Z,2.00
2019-04-25T02:52:12.790Z,2.30
2019-04-25T02:54:45.950Z,2.67
2019-04-25T02:57:22.077Z,2.67
2019-04-25T02:59:58.554Z,4.20
2019-04-25T03:02:36.756Z,4.33
2019-04-25T03:05:14.289Z,3.53
2019-04-25T03:07:50.755Z,2.57
2019-04-25T03:10:27.087Z,2.80
2019-04-25T03:13:06.953Z,3.23
2019-04-25T03:15:41.116Z,2.93
2019-04-25T03:18:18.996Z,3.07
2019-04-25T03:21:17.354Z,2.80
2019-04-25T03:23:54.848Z,2.83
2019-04-25T03:26:39.873Z,3.67
2019-04-25T03:29:08.171Z,3.47
2019-04-25T03:31:45.163Z,4.00
2019-04-25T03:34:21.451Z,3.53
2019-04-25T03:36:57.688Z,3.10
2019-04-25T03:39:33.859Z,3.47
2019-04-25T03:42:10.102Z,3.50
2019-04-25T03:44:46.348Z,3.30
2019-04-25T03:47:23.545Z,3.57
2019-04-25T03:49:59.823Z,3.73
2019-04-25T03:52:36.071Z,3.50
2019-04-25T03:55:14.441Z,3.70
2019-04-25T03:57:50.771Z,3.53
2019-04-25T04:00:27.056Z,3.30
2019-04-25T04:03:05.718Z,3.50
2019-04-25T04:05:41.217Z,3.30
2019-04-25T04:08:17.427Z,3.53
2019-04-25T04:10:54.322Z,3.63
2019-04-25T04:13:30.542Z,3.83
2019-04-25T04:16:07.048Z,3.60
2019-04-25T04:18:45.031Z,3.53
2019-04-25T04:21:23.528Z,3.70
2019-04-25T04:24:10.484Z,3.53
2019-04-25T04:26:48.294Z,2.77
2019-04-25T04:29:25.553Z,2.57
2019-04-25T04:32:03.072Z,2.17
2019-04-25T04:34:39.293Z,2.77
2019-04-25T04:37:16.196Z,2.53
2019-04-25T04:39:53.662Z,3.00
2019-04-25T04:42:30.015Z,2.83
2019-04-25T04:45:08.370Z,2.80
2019-04-25T04:47:44.632Z,3.37
2019-04-25T04:50:20.875Z,3.50
2019-04-25T04:52:57.087Z,3.07
2019-04-25T04:55:34.377Z,2.80
2019-04-25T04:58:11.167Z,2.40
2019-04-25T05:00:47.443Z,2.20
2019-04-25T05:03:34.348Z,2.07
2019-04-25T05:06:13.938Z,1.83
2019-04-25T05:08:53.227Z,1.90
2019-04-25T05:11:29.443Z,2.20
2019-04-25T05:14:05.573Z,1.87
2019-04-25T05:16:43.214Z,1.90
2019-04-25T05:19:19.925Z,1.80
2019-04-25T05:21:56.079Z,1.70
2019-04-25T05:24:33.820Z,2.00
2019-04-25T05:27:10.061Z,1.87
2019-04-25T05:29:46.260Z,1.60
2019-04-25T05:32:24.129Z,1.90
2019-04-25T05:35:00.174Z,1.80
2019-04-25T05:37:36.336Z,1.50
2019-04-25T05:40:14.689Z,1.90
2019-04-25T05:42:58.503Z,1.90
2019-04-25T05:45:34.677Z,1.80
2019-04-25T05:48:10.940Z,1.80
2019-04-25T05:50:47.132Z,1.63
2019-04-25T05:53:24.188Z,1.63
2019-04-25T05:56:01.229Z,1.70
2019-04-25T05:58:37.401Z,1.70
2019-04-25T06:01:13.652Z,1.67
2019-04-25T06:03:49.831Z,1.70
2019-04-25T06:06:26.119Z,1.50
2019-04-25T06:09:20.056Z,1.60
2019-04-25T06:11:57.941Z,1.43
2019-04-25T06:14:34.188Z,1.40
2019-04-25T06:17:14.495Z,1.63
2019-04-25T06:19:55.356Z,1.50
2019-04-25T06:22:43.481Z,1.70
2019-04-25T06:25:23.371Z,1.40
2019-04-25T06:28:16.975Z,1.40
2019-04-25T06:30:54.086Z,1.40
2019-04-25T06:33:30.337Z,1.50
2019-04-25T06:36:06.611Z,1.27
2019-04-25T06:38:44.294Z,1.57
2019-04-25T06:41:21.091Z,1.40
2019-04-25T06:43:59.741Z,1.50
2019-04-25T06:46:44.083Z,1.10
2019-04-25T06:49:24.363Z,1.37
2019-04-25T06:52:00.001Z,1.40
2019-04-25T06:54:36.204Z,1.20
2019-04-25T06:57:14.028Z,1.30
2019-04-25T06:59:50.323Z,1.37
2019-04-25T07:02:27.343Z,1.30
2019-04-25T07:05:09.031Z,1.23
2019-04-25T07:07:45.477Z,1.30
2019-04-25T07:10:23.226Z,1.33
2019-04-25T07:12:59.663Z,1.50
2019-04-25T07:15:35.849Z,1.27
2019-04-25T07:18:13.864Z,1.23
2019-04-25T07:20:49.944Z,1.40
2019-04-25T07:23:26.167Z,1.30
2019-04-25T07:26:03.946Z,1.40
2019-04-25T07:28:41.752Z,1.13
2019-04-25T07:31:28.516Z,1.53
2019-04-25T07:34:08.995Z,1.17
2019-04-25T07:36:45.654Z,1.20
2019-04-25T07:39:23.566Z,1.07
2019-04-25T07:41:59.873Z,1.63
2019-04-25T07:44:49.288Z,1.13
2019-04-25T07:47:15.836Z,1.20
2019-04-25T07:49:51.773Z,1.27
2019-04-25T07:52:28.797Z,1.47
2019-04-25T07:55:06.814Z,1.20
2019-04-25T07:57:44.261Z,1.20
2019-04-25T08:00:21.356Z,1.30
2019-04-25T08:02:57.592Z,1.20
2019-04-25T08:05:35.365Z,1.10
2019-04-25T08:08:13.477Z,1.20
2019-04-25T08:11:05.114Z,1.20
2019-04-25T08:13:48.993Z,0.90
2019-04-25T08:16:26.808Z,1.30
2019-04-25T08:19:04.246Z,1.00
2019-04-25T08:21:40.958Z,1.10
2019-04-25T08:24:17.212Z,1.00
2019-04-25T08:26:53.547Z,0.77
2019-04-25T08:29:30.779Z,0.83
2019-04-25T08:32:08.037Z,1.13
2019-04-25T08:34:44.822Z,0.90
2019-04-25T08:37:21.275Z,1.10
2019-04-25T08:39:57.535Z,0.97
2019-04-25T08:42:35.786Z,0.90
2019-04-25T08:45:13.308Z,0.90
2019-04-25T08:47:49.609Z,1.00
2019-04-25T08:50:31.367Z,1.07
2019-04-25T08:53:05.337Z,0.83
2019-04-25T08:55:44.440Z,1.00
2019-04-25T08:58:32.689Z,0.90
2019-04-25T09:01:27.640Z,0.97
2019-04-25T09:04:08.767Z,1.10
2019-04-25T09:06:45.020Z,0.87
2019-04-25T09:09:21.158Z,1.07
2019-04-25T09:11:57.405Z,0.80
2019-04-25T09:14:35.498Z,1.00
2019-04-25T09:17:11.486Z,0.90
2019-04-25T09:19:47.687Z,0.90
2019-04-25T09:22:24.207Z,0.70
2019-04-25T09:25:00.573Z,1.00
2019-04-25T09:27:39.306Z,0.93
2019-04-25T09:30:14.745Z,0.90
2019-04-25T09:32:50.922Z,0.90
2019-04-25T09:35:27.055Z,1.00
2019-04-25T09:38:03.471Z,1.00
2019-04-25T09:40:39.696Z,0.80
2019-04-25T09:43:15.924Z,0.63
2019-04-25T09:45:59.576Z,0.97
2019-04-25T09:48:46.823Z,0.83
2019-04-25T09:51:30.699Z,0.90
2019-04-25T09:54:11.432Z,1.00
2019-04-25T09:56:49.136Z,0.90
2019-04-25T09:59:27.893Z,1.03
2019-04-25T10:02:03.522Z,1.07
2019-04-25T10:04:39.757Z,0.90
2019-04-25T10:07:15.893Z,0.90
2019-04-25T10:09:53.584Z,0.70
2019-04-25T10:12:29.940Z,0.60
2019-04-25T10:15:15.123Z,0.87
2019-04-25T10:17:51.294Z,0.80
2019-04-25T10:20:27.492Z,0.63
2019-04-25T10:23:05.045Z,0.77
2019-04-25T10:25:42.427Z,0.60
2019-04-25T10:28:19.215Z,0.67
2019-04-25T10:30:56.501Z,0.70
2019-04-25T10:33:32.977Z,0.70
2019-04-25T10:36:11.332Z,0.70
2019-04-25T10:39:02.229Z,0.70
2019-04-25T10:41:25.405Z,0.80
2019-04-25T10:44:03.251Z,0.80
2019-04-25T10:46:40.183Z,0.70
2019-04-25T10:49:16.508Z,0.67
2019-04-25T10:51:53.115Z,1.20
2019-04-25T10:54:29.275Z,0.77
2019-04-25T10:57:06.602Z,1.00
2019-04-25T10:59:55.225Z,0.70
2019-04-25T11:02:21.408Z,0.70
2019-04-25T11:04:59.370Z,1.13
2019-04-25T11:07:35.585Z,0.70
2019-04-25T11:10:14.033Z,0.77
2019-04-25T11:12:50.379Z,0.80
2019-04-25T11:15:26.667Z,0.87
2019-04-25T11:18:04.187Z,0.77
2019-04-25T11:20:41.064Z,0.60
2019-04-25T11:23:17.233Z,0.83
2019-04-25T11:25:54.224Z,0.70
2019-04-25T11:28:30.566Z,0.70
2019-04-25T11:31:08.447Z,0.90
2019-04-25T11:33:44.685Z,0.70
2019-04-25T11:36:20.973Z,0.63
2019-04-25T11:39:15.261Z,0.60
2019-04-25T11:41:51.462Z,0.80
2019-04-25T11:44:27.698Z,0.80
2019-04-25T11:47:06.938Z,0.90
2019-04-25T11:49:42.144Z,0.80
2019-04-25T11:52:27.434Z,1.00
2019-04-25T11:54:57.626Z,0.90
2019-04-25T11:57:33.755Z,1.10
2019-04-25T12:00:21.596Z,1.20
2019-04-25T12:02:48.196Z,1.13
2019-04-25T12:05:24.432Z,1.10
2019-04-25T12:08:00.572Z,1.20
2019-04-25T12:10:36.803Z,1.20
2019-04-25T12:13:13.370Z,0.90
2019-04-25T12:15:51.819Z,1.10
2019-04-25T12:18:28.071Z,1.07
2019-04-25T12:21:04.328Z,1.57
2019-04-25T12:23:40.543Z,1.03
2019-04-25T12:26:16.717Z,1.10
2019-04-25T12:28:54.741Z,1.27
2019-04-25T12:31:30.793Z,1.57
2019-04-25T12:34:06.992Z,1.10
2019-04-25T12:36:44.394Z,1.23
2019-04-25T12:39:20.898Z,1.20
2019-04-25T12:41:57.113Z,1.43
2019-04-25T12:44:34.918Z,1.60
2019-04-25T12:47:15.420Z,1.10
2019-04-25T12:49:51.517Z,1.50
2019-04-25T12:52:27.728Z,1.43
2019-04-25T12:55:04.335Z,0.90
2019-04-25T12:57:40.464Z,1.00
2019-04-25T13:00:19.130Z,1.20
2019-04-25T13:02:55.267Z,1.50
2019-04-25T13:05:31.496Z,1.23
2019-04-25T13:08:07.700Z,1.30
2019-04-25T13:10:44.476Z,1.60
2019-04-25T13:13:20.857Z,1.03
2019-04-25T13:15:57.468Z,1.00
2019-04-25T13:18:33.678Z,1.47
2019-04-25T13:21:09.847Z,0.90
2019-04-25T13:23:46.047Z,1.50
2019-04-25T13:26:24.877Z,1.00
2019-04-25T13:29:21.177Z,0.97
2019-04-25T13:32:14.145Z,0.80
2019-04-25T13:34:54.684Z,1.30
2019-04-25T13:37:30.940Z,0.90
2019-04-25T13:40:07.896Z,0.90
2019-04-25T13:42:44.051Z,0.93
2019-04-25T13:45:20.262Z,1.00
2019-04-25T13:47:56.564Z,1.27
2019-04-25T13:50:33.981Z,0.87
2019-04-25T13:53:10.569Z,1.10
2019-04-25T13:55:46.820Z,1.00
2019-04-25T13:58:24.514Z,1.00
2019-04-25T14:01:12.377Z,1.10
2019-04-25T14:03:39.276Z,1.67
2019-04-25T14:06:15.605Z,1.07
2019-04-25T14:08:53.294Z,1.37
2019-04-25T14:11:30.124Z,0.80
2019-04-25T14:14:06.376Z,1.10
2019-04-25T14:16:54.528Z,1.10
2019-04-25T14:19:41.279Z,1.00
2019-04-25T14:22:17.621Z,0.97
2019-04-25T14:24:54.123Z,1.00
2019-04-25T14:27:30.360Z,1.30
2019-04-25T14:30:08.238Z,1.10
2019-04-25T14:32:44.491Z,0.83
2019-04-25T14:35:20.628Z,1.10
2019-04-25T14:37:56.799Z,1.10
2019-04-25T14:40:33.292Z,1.10
2019-04-25T14:43:09.575Z,1.57
2019-04-25T14:45:45.883Z,1.13
2019-04-25T14:48:22.566Z,0.80
2019-04-25T14:50:59.751Z,1.17
2019-04-25T14:53:35.988Z,1.00
2019-04-25T14:56:15.255Z,0.90
2019-04-25T14:58:51.608Z,1.03
2019-04-25T15:01:28.074Z,0.90
2019-04-25T15:04:04.470Z,1.10
2019-04-25T15:06:40.677Z,1.23
2019-04-25T15:09:16.989Z,0.90
2019-04-25T15:11:53.169Z,1.03
2019-04-25T15:14:29.589Z,1.03
2019-04-25T15:17:06.066Z,1.00
2019-04-25T15:19:42.231Z,1.07
2019-04-25T15:22:18.409Z,1.33
2019-04-25T15:24:54.541Z,0.90
2019-04-25T15:27:30.802Z,1.30
2019-04-25T15:30:09.586Z,0.83
2019-04-25T15:32:45.689Z,0.93
2019-04-25T15:35:23.668Z,1.30
2019-04-25T15:38:02.451Z,1.03
2019-04-25T15:40:46.511Z,0.97
2019-04-25T15:43:36.276Z,0.83
2019-04-25T15:46:14.132Z,0.80
2019-04-25T15:48:50.371Z,1.10
2019-04-25T15:51:26.940Z,1.20
2019-04-25T15:54:03.676Z,0.90
2019-04-25T15:56:39.781Z,0.80
2019-04-25T15:59:16.065Z,0.77
2019-04-25T16:01:52.204Z,1.00
2019-04-25T16:04:28.369Z,0.60
2019-04-25T16:07:04.584Z,0.90
2019-04-25T16:09:41.350Z,1.03
2019-04-25T16:12:17.721Z,1.10
2019-04-25T16:14:53.886Z,0.90
2019-04-25T16:17:30.715Z,0.90
2019-04-25T16:20:07.157Z,0.90
2019-04-25T16:22:43.391Z,0.60
2019-04-25T16:25:19.663Z,0.80
2019-04-25T16:27:55.901Z,0.90
2019-04-25T16:30:33.335Z,0.70
2019-04-25T16:33:09.958Z,0.77
2019-04-25T16:35:46.099Z,0.77
2019-04-25T16:38:22.814Z,1.00
2019-04-25T16:40:59.033Z,1.00
2019-04-25T16:43:36.920Z,0.83
2019-04-25T16:46:13.832Z,1.20
2019-04-25T16:48:50.069Z,0.70
2019-04-25T16:51:26.204Z,1.17
2019-04-25T16:54:02.384Z,0.80
2019-04-25T16:56:38.815Z,0.80
2019-04-25T16:59:15.007Z,0.97
2019-04-25T17:01:51.283Z,0.80
2019-04-25T17:04:27.441Z,0.67
2019-04-25T17:07:03.571Z,0.80
2019-04-25T17:09:39.773Z,0.80
2019-04-25T17:12:16.815Z,0.80
2019-04-25T17:15:10.683Z,0.90
2019-04-25T17:17:54.639Z,1.57
2019-04-25T17:20:32.445Z,0.70
2019-04-25T17:23:09.327Z,1.37
2019-04-25T17:25:45.632Z,0.80
2019-04-25T17:28:22.775Z,0.80
2019-04-25T17:31:00.617Z,1.10
2019-04-25T17:33:44.141Z,0.80
2019-04-25T17:36:21.848Z,1.00
2019-04-25T17:38:59.648Z,0.90
2019-04-25T17:41:36.254Z,0.87
2019-04-25T17:44:12.503Z,0.73
2019-04-25T17:46:48.806Z,0.97
2019-04-25T17:49:24.953Z,0.80
2019-04-25T17:52:01.116Z,0.87
2019-04-25T17:54:38.864Z,0.80
2019-04-25T17:57:15.113Z,0.80
2019-04-25T17:59:51.253Z,0.73
2019-04-25T18:02:27.561Z,1.20
2019-04-25T18:05:04.357Z,0.90
2019-04-25T18:07:40.524Z,0.90
2019-04-25T18:10:17.436Z,0.80
2019-04-25T18:12:53.566Z,0.77
2019-04-25T18:15:47.621Z,1.10
2019-04-25T18:18:31.572Z,0.70
2019-04-25T18:21:07.853Z,1.10
2019-04-25T18:23:46.524Z,0.90
2019-04-25T18:26:41.331Z,0.87
2019-04-25T18:29:19.392Z,1.07
2019-04-25T18:31:55.661Z,0.90
2019-04-25T18:34:46.403Z,0.80
2019-04-25T18:37:40.617Z,0.77
2019-04-25T18:40:21.105Z,1.20
2019-04-25T18:42:58.919Z,0.80
2019-04-25T18:45:37.368Z,1.17
2019-04-25T18:48:14.559Z,0.83
2019-04-25T18:50:50.773Z,0.90
2019-04-25T18:53:34.472Z,0.80
2019-04-25T18:56:15.300Z,0.80
2019-04-25T18:58:56.000Z,1.10
2019-04-25T19:01:50.071Z,0.97
2019-04-25T19:04:33.600Z,1.37
2019-04-25T19:07:21.939Z,0.80
2019-04-25T19:09:47.775Z,0.87
2019-04-25T19:12:23.988Z,0.77
2019-04-25T19:15:00.355Z,1.10
2019-04-25T19:17:36.562Z,0.77
2019-04-25T19:20:13.037Z,1.00
2019-04-25T19:22:49.272Z,0.80
2019-04-25T19:25:25.407Z,1.10
2019-04-25T19:28:01.632Z,1.00
2019-04-25T19:30:38.661Z,1.03
2019-04-25T19:33:15.701Z,0.90
2019-04-25T19:35:51.864Z,0.90
2019-04-25T19:38:28.097Z,1.00
2019-04-25T19:41:15.160Z,0.97
2019-04-25T19:43:52.873Z,1.00
2019-04-25T19:46:31.051Z,0.73
2019-04-25T19:49:07.705Z,0.80
2019-04-25T19:51:45.070Z,1.17
2019-04-25T19:54:21.394Z,1.00
2019-04-25T19:56:57.678Z,1.17
2019-04-25T19:59:33.952Z,0.90
2019-04-25T20:02:11.804Z,0.90
2019-04-25T20:04:49.613Z,1.10
2019-04-25T20:07:27.464Z,1.20
2019-04-25T20:10:05.848Z,1.30
2019-04-25T20:12:49.835Z,0.93
2019-04-25T20:15:24.412Z,1.00
2019-04-25T20:18:00.632Z,1.00
2019-04-25T20:20:36.949Z,1.00
2019-04-25T20:23:13.213Z,1.00
2019-04-25T20:25:49.383Z,1.10
2019-04-25T20:28:25.518Z,1.10
2019-04-25T20:31:01.681Z,0.93
2019-04-25T20:33:38.176Z,1.00
2019-04-25T20:36:17.930Z,1.20
2019-04-25T20:38:53.135Z,1.10
2019-04-25T20:41:29.605Z,1.03
2019-04-25T20:44:05.928Z,1.10
2019-04-25T20:46:42.304Z,1.00
2019-04-25T20:49:18.603Z,1.20
2019-04-25T20:51:54.745Z,1.03
2019-04-25T20:54:30.977Z,1.00
2019-04-25T20:57:07.178Z,1.07
2019-04-25T20:59:43.363Z,1.00
2019-04-25T21:02:19.580Z,1.40
2019-04-25T21:04:56.819Z,1.20
2019-04-25T21:07:33.073Z,1.07
2019-04-25T21:10:09.347Z,1.10
2019-04-25T21:12:45.482Z,1.07
2019-04-25T21:15:23.299Z,1.10
2019-04-25T21:18:01.194Z,1.20
2019-04-25T21:20:37.401Z,1.23
2019-04-25T21:23:13.639Z,1.40
2019-04-25T21:25:51.459Z,1.30
2019-04-25T21:28:27.835Z,1.60
2019-04-25T21:31:04.038Z,1.23
2019-04-25T21:33:40.216Z,1.00
2019-04-25T21:36:16.480Z,1.00
2019-04-25T21:38:53.799Z,1.17
2019-04-25T21:41:34.593Z,0.97
2019-04-25T21:44:11.141Z,1.20
2019-04-25T21:46:47.356Z,1.13
2019-04-25T21:49:25.251Z,1.40
2019-04-25T21:52:01.662Z,1.10
2019-04-25T21:54:38.167Z,1.40
2019-04-25T21:57:14.712Z,1.07
2019-04-25T22:00:00.516Z,1.30
2019-04-25T22:02:29.362Z,1.20
2019-04-25T22:05:06.910Z,1.40
2019-04-25T22:07:43.445Z,1.07
2019-04-25T22:10:19.997Z,1.10
2019-04-25T22:13:10.519Z,1.40
2019-04-25T22:15:34.080Z,3.13
2019-04-25T22:18:10.583Z,2.60
2019-04-25T22:20:46.846Z,3.67
2019-04-25T22:23:23.438Z,1.87
2019-04-25T22:26:00.009Z,2.20
2019-04-25T22:28:37.620Z,1.97
2019-04-25T22:31:15.664Z,2.00
2019-04-25T22:34:05.943Z,1.97
2019-04-25T22:36:42.466Z,2.30
2019-04-25T22:39:18.598Z,2.10
2019-04-25T22:41:55.084Z,2.20
2019-04-25T22:44:31.589Z,2.53
2019-04-25T22:47:08.380Z,2.33
2019-04-25T22:49:44.488Z,2.97
2019-04-25T22:52:20.844Z,3.90
2019-04-25T22:54:57.052Z,2.97
2019-04-25T22:57:33.391Z,2.90
2019-04-25T23:00:11.501Z,2.97
2019-04-25T23:02:52.224Z,3.20
2019-04-25T23:05:30.038Z,2.70
2019-04-25T23:08:06.549Z,3.00
2019-04-25T23:10:42.784Z,3.57
2019-04-25T23:13:18.995Z,3.17
2019-04-25T23:15:55.226Z,2.73
2019-04-25T23:18:31.626Z,2.73
2019-04-25T23:21:08.536Z,3.00
2019-04-25T23:23:44.687Z,2.80
2019-04-25T23:26:22.562Z,3.23
2019-04-25T23:29:00.604Z,2.73
2019-04-25T23:31:38.493Z,1.97
2019-04-25T23:34:15.291Z,2.70
2019-04-25T23:36:51.549Z,2.77
2019-04-25T23:39:28.051Z,2.80
2019-04-25T23:42:05.939Z,3.20
2019-04-25T23:44:42.035Z,2.90
2019-04-25T23:47:18.347Z,3.00
2019-04-25T23:49:54.587Z,2.97
2019-04-25T23:52:31.099Z,2.63
2019-04-25T23:55:08.373Z,2.80
2019-04-25T23:57:45.108Z,2.67
